Time;durP1;ratioP1;P1;durP2;ratioP2;P2;SDS_P1;SDS_P2;PMS_P1;PMS_P2;Temp;Humidity;BMP_temperature;BMP_pressure;BME280_temperature;BME280_humidity;BME280_pressure;Samples;Min_cycle;Max_cycle;Signal;HPM_P1;HPM_P2
2022/11/21 00:01:13;;;;;;;0.82;0.35;;;24.30;44.20;;;;;;4132665;28;20045;-47
2022/11/21 00:03:37;;;;;;;0.63;0.30;;;24.30;44.30;;;;;;4129261;28;20045;-50
2022/11/21 00:06:03;;;;;;;0.30;0.30;;;24.40;44.40;;;;;;4131682;28;20341;-51
2022/11/21 00:08:25;;;;;;;1.70;0.40;;;24.40;44.20;;;;;;4128696;28;20554;-51
2022/11/21 00:10:48;;;;;;;1.38;0.40;;;24.40;44.10;;;;;;4130964;28;20030;-52
2022/11/21 00:13:16;;;;;;;0.52;0.32;;;24.50;44.00;;;;;;4130738;28;20111;-50
2022/11/21 00:15:38;;;;;;;1.17;0.50;;;24.50;44.00;;;;;;4130419;28;20104;-50
2022/11/21 00:18:04;;;;;;;1.95;0.50;;;24.60;43.80;;;;;;4131347;28;20046;-51
2022/11/21 00:20:27;;;;;;;1.08;0.43;;;24.60;43.70;;;;;;4127799;28;20414;-51
2022/11/21 00:22:50;;;;;;;0.68;0.25;;;24.60;43.70;;;;;;4130814;28;20109;-49
2022/11/21 00:25:13;;;;;;;0.65;0.40;;;24.60;43.70;;;;;;4131318;28;20058;-54
2022/11/21 00:27:35;;;;;;;0.82;0.40;;;24.60;43.60;;;;;;4117059;28;20057;-50
2022/11/21 00:29:58;;;;;;;1.00;0.50;;;24.60;43.70;;;;;;4131230;28;20038;-47
2022/11/21 00:32:20;;;;;;;0.30;0.20;;;24.60;43.70;;;;;;4131584;28;20057;-48
2022/11/21 00:34:43;;;;;;;0.77;0.40;;;24.60;43.60;;;;;;4128652;28;20508;-51
2022/11/21 00:37:06;;;;;;;0.85;0.30;;;24.60;43.70;;;;;;4130554;28;20045;-51
2022/11/21 00:39:28;;;;;;;2.50;0.50;;;24.60;43.60;;;;;;4131043;28;20040;-54
2022/11/21 00:41:51;;;;;;;3.67;0.50;;;24.60;43.50;;;;;;4131170;28;20026;-49
2022/11/21 00:44:13;;;;;;;0.95;0.40;;;24.60;43.50;;;;;;4132153;28;20116;-48
2022/11/21 00:46:36;;;;;;;1.58;0.30;;;24.70;43.40;;;;;;4129206;28;20375;-46
2022/11/21 00:48:58;;;;;;;0.98;0.40;;;24.70;43.30;;;;;;4131216;28;20529;-51
2022/11/21 00:51:22;;;;;;;0.98;0.35;;;24.70;43.20;;;;;;4115484;28;20395;-50
2022/11/21 00:53:44;;;;;;;1.80;0.38;;;24.80;43.10;;;;;;4129376;28;20084;-51
2022/11/21 00:56:07;;;;;;;0.82;0.45;;;24.80;43.10;;;;;;4130889;28;20168;-52
2022/11/21 00:58:30;;;;;;;0.70;0.22;;;24.80;43.00;;;;;;4131178;28;20078;-47
2022/11/21 01:00:52;;;;;;;1.23;0.50;;;24.80;43.60;;;;;;4131839;28;20284;-49
2022/11/21 01:03:15;;;;;;;3.13;0.32;;;24.80;42.80;;;;;;4116299;28;20039;-50
2022/11/21 01:05:37;;;;;;;1.55;0.38;;;24.80;42.90;;;;;;4130796;28;20426;-51
2022/11/21 01:08:00;;;;;;;1.55;0.40;;;24.80;42.80;;;;;;4113748;28;20121;-47
2022/11/21 01:10:22;;;;;;;1.65;0.40;;;24.80;42.80;;;;;;4130983;28;20037;-48
2022/11/21 01:12:45;;;;;;;3.28;0.77;;;24.90;42.80;;;;;;4129940;28;20450;-50
2022/11/21 01:15:08;;;;;;;0.52;0.20;;;24.90;42.80;;;;;;4128892;28;20045;-50
2022/11/21 01:17:32;;;;;;;1.13;0.30;;;24.90;42.60;;;;;;4129718;28;20120;-54
2022/11/21 01:19:55;;;;;;;0.68;0.40;;;24.90;42.70;;;;;;4130254;28;20603;-52
2022/11/21 01:22:17;;;;;;;0.47;0.40;;;24.90;42.70;;;;;;4131274;28;20490;-50
2022/11/21 01:24:40;;;;;;;0.57;0.20;;;24.90;42.70;;;;;;4132424;28;20104;-47
2022/11/21 01:27:02;;;;;;;0.75;0.22;;;25.00;42.70;;;;;;4132028;28;20078;-46
2022/11/21 01:29:25;;;;;;;1.60;0.45;;;25.00;42.60;;;;;;4131051;28;20033;-50
2022/11/21 01:31:48;;;;;;;0.40;0.30;;;25.00;42.70;;;;;;4132194;28;20140;-54
2022/11/21 01:34:13;;;;;;;1.25;0.38;;;25.00;42.80;;;;;;4128477;28;20160;-50
2022/11/21 01:36:36;;;;;;;1.85;0.32;;;25.00;42.80;;;;;;4131678;28;20049;-49
2022/11/21 01:39:01;;;;;;;0.90;0.50;;;25.00;42.80;;;;;;4130952;28;20121;-57
2022/11/21 01:41:35;;;;;;;1.02;0.40;;;25.00;42.70;;;;;;4127450;28;20052;-49
2022/11/21 01:43:58;;;;;;;0.80;0.40;;;25.10;42.80;;;;;;4127251;28;20045;-48
2022/11/21 01:46:22;;;;;;;0.85;0.38;;;25.10;42.70;;;;;;4129659;28;20095;-54
2022/11/21 01:48:47;;;;;;;1.63;0.47;;;25.10;42.70;;;;;;4127164;28;20029;-47
2022/11/21 01:51:31;;;;;;;1.55;0.22;;;25.10;42.70;;;;;;4125304;28;20526;-54
2022/11/21 01:53:57;;;;;;;0.60;0.30;;;25.10;42.70;;;;;;4126889;28;20069;-52
2022/11/21 01:56:20;;;;;;;0.50;0.28;;;25.10;42.70;;;;;;4127696;28;20342;-56
2022/11/21 01:58:45;;;;;;;1.75;0.30;;;25.10;42.60;;;;;;4131354;28;20438;-49
2022/11/21 02:01:07;;;;;;;1.95;0.50;;;25.10;42.60;;;;;;4131350;28;20053;-51
2022/11/21 02:03:35;;;;;;;1.33;0.50;;;25.20;42.70;;;;;;4127596;28;20041;-53
2022/11/21 02:05:58;;;;;;;0.57;0.40;;;25.20;42.60;;;;;;4122585;28;20495;-52
2022/11/21 02:08:22;;;;;;;1.00;0.70;;;25.20;42.80;;;;;;4124319;28;20075;-51
2022/11/21 02:11:21;;;;;;;1.45;0.80;;;25.20;42.80;;;;;;4125340;28;20439;-52
2022/11/21 02:13:43;;;;;;;3.42;1.13;;;25.20;42.70;;;;;;4124642;28;20270;-47
2022/11/21 02:16:06;;;;;;;5.28;2.65;;;25.20;42.50;;;;;;4123747;28;20535;-49
2022/11/21 02:18:29;;;;;;;4.40;2.27;;;25.20;41.30;;;;;;4121351;28;20033;-50
2022/11/21 02:20:58;;;;;;;3.05;1.80;;;25.20;41.20;;;;;;4121913;28;20330;-49
2022/11/21 02:23:43;;;;;;;4.97;1.90;;;25.10;41.40;;;;;;4123857;28;20056;-50
2022/11/21 02:26:06;;;;;;;2.78;1.67;;;25.10;41.60;;;;;;4107047;28;20141;-49
2022/11/21 02:28:28;;;;;;;3.75;1.90;;;25.20;41.80;;;;;;4107056;28;20034;-50
2022/11/21 02:30:51;;;;;;;1.73;1.13;;;25.20;41.80;;;;;;4104100;28;20500;-51
2022/11/21 02:33:14;;;;;;;2.78;1.60;;;25.20;42.00;;;;;;4106104;28;20125;-51
2022/11/21 02:35:37;;;;;;;3.33;1.70;;;25.20;42.00;;;;;;4110748;28;20069;-50
2022/11/21 02:38:31;;;;;;;3.33;1.97;;;25.20;42.10;;;;;;4112960;28;20346;-53
2022/11/21 02:41:01;;;;;;;3.35;1.95;;;25.20;42.10;;;;;;4105531;28;20066;-49
2022/11/21 02:43:29;;;;;;;3.30;1.90;;;25.20;42.30;;;;;;4109754;28;20519;-51
2022/11/21 02:45:51;;;;;;;2.45;1.80;;;25.20;42.20;;;;;;4113861;28;20468;-52
2022/11/21 02:48:14;;;;;;;3.72;2.30;;;25.30;42.30;;;;;;4115462;28;20129;-51
2022/11/21 02:50:39;;;;;;;4.97;2.13;;;25.30;42.20;;;;;;4111515;28;20073;-46
2022/11/21 02:53:03;;;;;;;2.85;1.92;;;25.30;42.20;;;;;;4100209;28;20579;-46
2022/11/21 02:55:26;;;;;;;3.13;1.75;;;25.30;42.10;;;;;;4114155;28;20148;-52
2022/11/21 02:57:48;;;;;;;2.15;1.67;;;25.30;42.10;;;;;;4110966;28;20073;-50
2022/11/21 03:00:11;;;;;;;2.50;1.77;;;25.30;42.10;;;;;;4114426;28;20069;-50
2022/11/21 03:02:34;;;;;;;2.20;1.60;;;25.40;42.10;;;;;;4105408;28;20511;-49
2022/11/21 03:04:57;;;;;;;2.83;1.70;;;25.40;42.00;;;;;;4108998;28;20254;-49
2022/11/21 03:07:19;;;;;;;3.08;1.45;;;25.40;41.90;;;;;;4105404;28;20046;-48
2022/11/21 03:09:42;;;;;;;2.72;1.60;;;25.40;42.00;;;;;;4108936;28;20046;-47
2022/11/21 03:12:09;;;;;;;2.40;1.38;;;25.40;41.80;;;;;;4109144;28;20045;-51
2022/11/21 03:14:32;;;;;;;2.60;1.52;;;25.40;41.80;;;;;;4106316;28;20030;-48
2022/11/21 03:16:54;;;;;;;2.55;1.35;;;25.40;41.90;;;;;;4107395;28;20519;-51
2022/11/21 03:19:17;;;;;;;3.20;1.67;;;25.40;41.90;;;;;;4110730;28;20265;-53
2022/11/21 03:21:39;;;;;;;3.40;1.42;;;25.40;41.80;;;;;;4102109;28;20042;-54
2022/11/21 03:24:02;;;;;;;2.15;1.58;;;25.40;41.70;;;;;;4114545;28;20575;-55
2022/11/21 03:26:24;;;;;;;2.00;1.30;;;25.40;41.20;;;;;;4122686;28;20049;-55
2022/11/21 03:28:47;;;;;;;11.48;1.80;;;25.40;41.40;;;;;;4131398;28;20681;-54
2022/11/21 03:31:09;;;;;;;2.95;1.40;;;25.50;41.40;;;;;;4124638;28;20045;-54
2022/11/21 03:33:32;;;;;;;2.17;1.33;;;25.40;41.50;;;;;;4129340;28;20529;-57
2022/11/21 03:35:54;;;;;;;2.13;1.40;;;25.50;41.60;;;;;;4125527;28;20049;-54
2022/11/21 03:38:17;;;;;;;2.42;1.65;;;25.50;41.60;;;;;;4129650;28;20628;-55
2022/11/21 03:40:39;;;;;;;2.92;1.40;;;25.50;41.50;;;;;;4128646;28;20034;-56
2022/11/21 03:43:06;;;;;;;2.70;0.90;;;25.50;41.50;;;;;;4116069;28;20065;-57
2022/11/21 03:45:29;;;;;;;1.90;1.27;;;25.50;41.40;;;;;;4121616;28;20034;-58
2022/11/21 03:47:51;;;;;;;1.77;1.10;;;25.50;41.70;;;;;;4123134;28;20136;-57
2022/11/21 03:50:17;;;;;;;3.47;1.35;;;25.50;41.80;;;;;;4122966;28;20038;-56
2022/11/21 03:52:40;;;;;;;3.53;1.52;;;25.60;41.90;;;;;;4124798;28;20545;-55
2022/11/21 03:55:02;;;;;;;5.70;1.90;;;25.60;41.90;;;;;;4120045;28;20042;-55
2022/11/21 03:57:25;;;;;;;4.53;2.30;;;25.60;41.70;;;;;;4120794;28;20045;-55
2022/11/21 03:59:47;;;;;;;8.90;2.85;;;25.70;41.90;;;;;;4120744;28;20030;-54
2022/11/21 04:02:10;;;;;;;8.65;3.70;;;25.70;41.70;;;;;;4124065;28;20157;-48
2022/11/21 04:04:32;;;;;;;12.65;3.28;;;25.70;41.70;;;;;;4118171;28;20037;-51
2022/11/21 04:06:55;;;;;;;9.80;4.25;;;25.70;41.70;;;;;;4120457;28;20034;-44
2022/11/21 04:09:17;;;;;;;12.80;4.30;;;25.70;41.60;;;;;;4121979;28;20286;-49
2022/11/21 04:11:46;;;;;;;7.35;5.03;;;25.70;41.50;;;;;;4123457;28;20516;-53
2022/11/21 04:14:08;;;;;;;7.57;5.40;;;25.80;41.30;;;;;;4108471;28;20038;-52
2022/11/21 04:16:31;;;;;;;8.60;5.85;;;25.80;41.20;;;;;;4122789;28;20108;-53
2022/11/21 04:18:53;;;;;;;7.30;6.55;;;25.80;41.10;;;;;;4122668;28;20104;-50
2022/11/21 04:21:16;;;;;;;7.65;6.13;;;25.90;41.10;;;;;;4127320;28;20056;-51
2022/11/21 04:23:38;;;;;;;10.27;5.80;;;25.90;40.90;;;;;;4124736;28;20096;-55
2022/11/21 04:26:01;;;;;;;7.97;5.55;;;25.90;40.90;;;;;;4118934;28;20145;-52
2022/11/21 04:28:24;;;;;;;8.80;5.57;;;26.00;41.40;;;;;;4121597;28;20191;-53
2022/11/21 04:30:46;;;;;;;8.23;5.97;;;26.00;41.30;;;;;;4118782;28;20058;-52
2022/11/21 04:33:11;;;;;;;6.07;5.15;;;26.10;41.10;;;;;;4121339;28;20356;-52
2022/11/21 04:35:33;;;;;;;7.07;5.28;;;26.10;41.00;;;;;;4120550;28;20038;-52
2022/11/21 04:37:56;;;;;;;6.05;5.15;;;26.20;41.00;;;;;;4122824;28;20041;-49
2022/11/21 04:40:19;;;;;;;7.07;4.88;;;26.20;40.90;;;;;;4121471;28;20126;-51
2022/11/21 04:42:42;;;;;;;7.43;5.60;;;26.30;40.80;;;;;;4123932;28;20065;-51
2022/11/21 04:45:05;;;;;;;;;;;26.30;40.70;;;;;;4126806;28;20121;-51
2022/11/21 04:47:27;;;;;;;6.00;5.10;;;26.40;40.70;;;;;;4124330;28;20456;-50
2022/11/21 04:49:50;;;;;;;5.50;4.40;;;26.40;40.70;;;;;;4113674;28;20097;-49
2022/11/21 04:52:12;;;;;;;6.70;4.90;;;26.50;40.60;;;;;;4121086;28;20438;-48
2022/11/21 04:54:35;;;;;;;6.43;5.10;;;26.50;40.50;;;;;;4124777;28;20038;-52
2022/11/21 04:56:57;;;;;;;6.47;5.07;;;26.60;40.30;;;;;;4124520;28;20464;-53
2022/11/21 04:59:20;;;;;;;6.07;5.15;;;26.60;40.30;;;;;;4125024;28;20041;-51
2022/11/21 05:01:42;;;;;;;5.38;4.80;;;26.50;40.30;;;;;;4112642;28;20045;-52
2022/11/21 05:04:05;;;;;;;6.25;4.57;;;26.50;40.40;;;;;;4124387;28;20454;-47
2022/11/21 05:06:27;;;;;;;6.18;4.90;;;26.50;40.60;;;;;;4122356;28;20507;-50
2022/11/21 05:08:50;;;;;;;6.03;4.40;;;26.40;40.40;;;;;;4123407;28;20034;-52
2022/11/21 05:13:54;;;;;;;6.38;4.38;;;26.50;40.20;;;;;;4126680;28;20069;-54
2022/11/21 05:16:16;;;;;;;;;;;26.60;40.20;;;;;;4124126;28;20061;-49
2022/11/21 05:18:38;;;;;;;4.85;3.92;;;26.60;40.00;;;;;;4125136;28;19913;-54
2022/11/21 05:21:02;;;;;;;4.85;4.22;;;26.70;39.90;;;;;;4122488;28;20045;-57
2022/11/21 05:23:24;;;;;;;;;;;26.80;39.80;;;;;;4130098;28;20046;-57
2022/11/21 05:25:47;;;;;;;7.30;3.47;;;26.80;39.80;;;;;;4123842;28;19928;-50
2022/11/21 05:28:09;;;;;;;4.10;3.40;;;26.90;39.80;;;;;;4118952;28;20046;-52
2022/11/21 05:30:32;;;;;;;4.32;3.58;;;26.90;39.80;;;;;;4123549;28;20448;-49
2022/11/21 05:32:54;;;;;;;5.18;4.00;;;27.00;39.80;;;;;;4125057;28;20033;-49
2022/11/21 05:35:17;;;;;;;4.43;3.50;;;27.10;39.80;;;;;;4119161;28;20145;-50
2022/11/21 05:37:39;;;;;;;5.40;3.47;;;27.00;39.80;;;;;;4117953;28;20034;-54
2022/11/21 05:40:02;;;;;;;5.00;2.85;;;27.00;39.90;;;;;;4122697;28;20049;-52
2022/11/21 05:45:06;;;;;;;4.47;2.90;;;27.00;40.00;;;;;;4121516;28;20034;-51
2022/11/21 05:47:28;;;;;;;4.15;2.53;;;27.00;39.80;;;;;;4124566;28;20117;-50
2022/11/21 05:49:51;;;;;;;6.05;2.78;;;27.00;39.80;;;;;;4124099;28;20112;-50
2022/11/21 05:52:13;;;;;;;5.82;2.80;;;27.00;39.80;;;;;;4124543;28;20562;-54
2022/11/21 05:54:36;;;;;;;4.53;2.45;;;27.00;39.60;;;;;;4123702;28;20030;-52
2022/11/21 05:56:58;;;;;;;4.07;2.40;;;27.00;39.40;;;;;;4123162;28;20044;-53
2022/11/21 05:59:21;;;;;;;3.03;2.17;;;27.00;39.30;;;;;;4124334;28;20527;-54
2022/11/21 06:04:24;;;;;;;3.20;1.60;;;27.00;38.90;;;;;;4126014;28;20041;-55
2022/11/21 06:06:46;;;;;;;3.83;1.55;;;27.00;38.90;;;;;;4122660;28;20133;-51
2022/11/21 06:09:09;;;;;;;4.38;1.70;;;27.00;38.90;;;;;;4126731;28;20045;-55
2022/11/21 06:11:32;;;;;;;1.83;1.30;;;27.00;38.90;;;;;;4123748;28;20405;-53
2022/11/21 08:48:20;;;;;;;5.68;1.10;;;25.50;37.80;;;;;;4414200;23;19922;-48
2022/11/21 08:50:42;;;;;;;;;;;25.50;37.90;;;;;;4110745;28;20529;-46
2022/11/21 08:53:04;;;;;;;1.83;0.80;;;25.50;38.10;;;;;;4085339;28;19910;-45
2022/11/21 08:55:28;;;;;;;3.15;0.98;;;25.50;38.20;;;;;;4111260;28;20482;-43
2022/11/21 08:57:50;;;;;;;2.83;0.60;;;25.50;38.20;;;;;;4102246;28;20479;-46
2022/11/21 09:00:14;;;;;;;1.77;0.60;;;25.50;38.40;;;;;;4103506;28;20117;-49
2022/11/21 09:02:36;;;;;;;6.45;1.15;;;25.40;38.40;;;;;;4099016;28;20114;-44
2022/11/21 09:04:59;;;;;;;3.65;0.93;;;25.40;38.40;;;;;;4103682;28;20042;-48
2022/11/21 09:07:21;;;;;;;6.30;1.20;;;25.40;38.50;;;;;;4103819;28;20418;-49
2022/11/21 09:09:44;;;;;;;2.47;0.80;;;25.40;38.20;;;;;;4105760;28;20053;-47
2022/11/21 09:12:07;;;;;;;2.85;1.05;;;25.40;38.10;;;;;;4106136;28;20030;-48
2022/11/21 09:20:02;;;;;;;2.20;0.60;;;25.40;38.50;;;;;;4097637;28;20046;-51
2022/11/21 09:22:25;;;;;;;4.47;0.95;;;25.40;38.50;;;;;;4106623;28;20060;-44
2022/11/21 09:24:48;;;;;;;1.13;0.63;;;25.40;38.50;;;;;;4105865;28;20050;-46
2022/11/21 09:27:11;;;;;;;1.10;0.50;;;25.30;38.50;;;;;;4105021;28;20038;-49
2022/11/21 09:29:33;;;;;;;2.38;0.60;;;25.30;38.50;;;;;;4102797;28;20124;-51
2022/11/21 09:31:56;;;;;;;1.60;0.50;;;25.30;38.60;;;;;;4105966;28;20138;-49
2022/11/21 09:34:19;;;;;;;4.03;0.57;;;25.30;38.60;;;;;;4107854;28;20088;-52
2022/11/21 09:36:41;;;;;;;4.85;0.60;;;25.30;38.50;;;;;;4113283;28;20042;-47
2022/11/21 09:39:04;;;;;;;2.08;0.50;;;25.20;38.40;;;;;;4113280;28;20034;-45
2022/11/21 09:41:51;;;;;;;2.37;0.73;;;25.20;38.70;;;;;;4112636;28;20046;-49
2022/11/21 09:44:36;;;;;;;0.82;0.43;;;25.20;38.70;;;;;;4108686;28;20039;-53
2022/11/21 09:47:23;;;;;;;3.33;0.50;;;25.20;38.80;;;;;;4092967;28;20457;-48
2022/11/21 09:50:11;;;;;;;5.45;0.60;;;25.20;38.60;;;;;;4114310;28;20434;-49
2022/11/21 09:53:00;;;;;;;1.48;0.40;;;25.10;38.50;;;;;;4107198;28;20039;-46
2022/11/21 09:55:28;;;;;;;4.47;0.60;;;25.20;38.50;;;;;;4105730;28;20038;-48
2022/11/21 09:57:51;;;;;;;7.57;0.52;;;25.10;38.00;;;;;;4113266;28;20046;-54
2022/11/21 10:00:20;;;;;;;1.90;0.68;;;25.10;38.30;;;;;;4093900;28;20379;-51
2022/11/21 10:02:43;;;;;;;5.55;0.65;;;25.10;38.20;;;;;;4107959;28;20064;-53
2022/11/21 10:05:12;;;;;;;1.15;0.57;;;25.10;38.70;;;;;;4108910;28;20042;-50
2022/11/21 10:07:36;;;;;;;4.35;0.80;;;25.10;38.70;;;;;;4111188;28;20038;-54
2022/11/21 10:10:05;;;;;;;;;;;25.10;38.80;;;;;;4114352;28;20055;-49
2022/11/21 10:12:44;;;;;;;5.75;0.80;;;25.10;38.90;;;;;;4100201;28;19957;-46
2022/11/21 10:15:25;;;;;;;7.88;0.60;;;25.10;39.20;;;;;;4114780;28;20566;-58
2022/11/21 10:17:56;;;;;;;5.38;0.50;;;25.10;39.40;;;;;;4114379;28;20046;-50
2022/11/21 10:20:50;;;;;;;2.13;0.65;;;25.10;40.10;;;;;;4117130;28;20052;-52
2022/11/21 10:23:56;;;;;;;1.55;0.40;;;25.10;39.50;;;;;;4114084;28;20542;-49
2022/11/21 10:26:40;;;;;;;0.47;0.30;;;25.10;39.60;;;;;;4116422;28;20053;-52
2022/11/21 10:29:25;;;;;;;0.30;0.20;;;25.10;39.60;;;;;;4102609;28;20490;-51
2022/11/21 10:31:49;;;;;;;0.93;0.40;;;25.10;39.60;;;;;;4113379;28;20462;-55
2022/11/21 10:34:25;;;;;;;1.42;0.50;;;25.10;39.70;;;;;;4115044;28;20038;-49
2022/11/21 10:36:58;;;;;;;2.28;0.32;;;25.10;39.70;;;;;;4099130;28;20885;-43
2022/11/21 10:39:35;;;;;;;0.43;0.30;;;25.10;39.50;;;;;;4108188;28;20531;-48
2022/11/21 10:42:16;;;;;;;0.38;0.20;;;25.10;39.50;;;;;;4107344;28;20130;-47
2022/11/21 10:47:27;;;;;;;0.82;0.30;;;25.00;38.80;;;;;;4114115;28;20117;-44
2022/11/21 10:49:50;;;;;;;0.40;0.30;;;25.00;38.90;;;;;;4112117;28;20109;-49
2022/11/21 10:52:22;;;;;;;0.68;0.35;;;25.00;38.80;;;;;;4114689;28;20073;-48
2022/11/21 10:55:03;;;;;;;0.70;0.30;;;25.00;38.90;;;;;;4111609;28;20038;-48
2022/11/21 10:57:28;;;;;;;0.52;0.35;;;25.00;39.10;;;;;;4118484;28;20050;-50
2022/11/21 11:00:01;;;;;;;0.98;0.38;;;25.00;39.20;;;;;;4119887;28;20042;-49
2022/11/21 11:02:25;;;;;;;1.13;0.25;;;25.00;39.20;;;;;;4118006;28;20034;-45
2022/11/21 11:04:48;;;;;;;1.00;0.30;;;25.00;39.30;;;;;;4110819;28;20042;-48
2022/11/21 11:07:39;;;;;;;4.25;0.40;;;25.00;39.20;;;;;;4116672;28;20042;-49
2022/11/21 11:10:23;;;;;;;1.27;0.22;;;25.00;39.40;;;;;;4103793;28;20211;-48
2022/11/21 11:15:29;;;;;;;0.47;0.25;;;25.00;39.30;;;;;;4114738;28;20030;-56
2022/11/21 11:18:01;;;;;;;1.40;0.45;;;25.00;39.30;;;;;;4113501;28;20056;-59
2022/11/21 11:20:41;;;;;;;1.17;0.60;;;25.00;36.60;;;;;;4115769;28;20085;-57
2022/11/21 11:23:27;;;;;;;9.23;1.33;;;24.90;36.00;;;;;;4112637;28;20078;-50
2022/11/21 11:25:54;;;;;;;6.40;1.00;;;24.80;36.80;;;;;;4110485;28;20486;-52
2022/11/21 11:28:23;;;;;;;3.53;0.70;;;24.80;37.30;;;;;;4110827;28;20516;-54
2022/11/21 11:30:47;;;;;;;4.70;0.80;;;24.80;37.40;;;;;;4111065;28;20037;-51
2022/11/21 11:33:35;;;;;;;2.95;0.50;;;24.80;37.70;;;;;;4111339;28;20077;-46
2022/11/21 11:36:21;;;;;;;3.10;0.40;;;24.70;37.90;;;;;;4095708;28;20566;-50
2022/11/21 11:38:54;;;;;;;1.20;0.65;;;24.70;38.00;;;;;;4105387;28;20034;-50
2022/11/21 11:47:56;;;;;;;5.13;1.02;;;24.60;38.10;;;;;;4113909;28;20121;-50
2022/11/21 11:50:31;;;;;;;8.88;0.90;;;24.60;38.30;;;;;;4112843;28;21398;-51
2022/11/21 11:53:06;;;;;;;8.98;0.98;;;24.60;38.40;;;;;;4114357;28;20069;-68
2022/11/21 11:56:03;;;;;;;4.75;0.80;;;24.60;38.30;;;;;;4113437;28;20038;-43
2022/11/21 11:58:59;;;;;;;4.63;0.60;;;24.60;38.60;;;;;;4087577;28;20038;-53
2022/11/21 12:01:46;;;;;;;9.27;1.17;;;24.50;37.80;;;;;;4106039;28;20051;-46
2022/11/21 12:04:18;;;;;;;5.78;1.17;;;24.50;37.60;;;;;;4096634;28;20038;-48
2022/11/21 12:06:49;;;;;;;3.03;0.52;;;24.50;37.90;;;;;;4106676;28;20042;-46
2022/11/21 12:09:34;;;;;;;5.07;0.77;;;24.40;38.20;;;;;;4110548;28;20173;-49
2022/11/21 12:12:06;;;;;;;7.70;0.90;;;24.40;38.40;;;;;;4107577;28;20445;-47
2022/11/21 12:17:23;;;;;;;1.15;0.47;;;24.40;38.90;;;;;;4112043;28;20050;-55
2022/11/21 12:19:49;;;;;;;0.63;0.40;;;24.30;39.00;;;;;;4113657;28;20039;-53
2022/11/21 12:22:11;;;;;;;6.10;0.77;;;24.30;38.90;;;;;;4110473;28;20491;-49
2022/11/21 12:24:35;;;;;;;4.53;0.55;;;24.20;39.10;;;;;;4098907;28;20105;-50
2022/11/21 12:27:24;;;;;;;0.85;0.40;;;24.20;39.30;;;;;;4106856;28;20039;-51
2022/11/21 12:30:03;;;;;;;2.45;0.30;;;24.20;39.40;;;;;;4109769;28;20042;-46
2022/11/21 12:32:55;;;;;;;1.38;0.45;;;24.20;39.40;;;;;;4112951;28;20038;-48
2022/11/21 12:35:36;;;;;;;3.30;0.43;;;24.10;39.50;;;;;;4095554;28;20081;-52
2022/11/21 12:38:08;;;;;;;2.97;0.30;;;24.10;39.40;;;;;;4111638;28;20043;-49
2022/11/21 12:43:56;;;;;;;0.98;0.40;;;24.00;39.60;;;;;;4072904;28;20502;-47
2022/11/21 12:46:34;;;;;;;2.17;0.35;;;24.00;39.80;;;;;;4107591;28;20038;-47
2022/11/21 12:55:09;;;;;;;1.95;0.60;;;24.00;40.10;;;;;;4108522;28;20100;-56
2022/11/21 12:58:01;;;;;;;1.83;0.50;;;23.90;40.10;;;;;;4109267;28;20236;-53
2022/11/21 13:00:32;;;;;;;1.25;0.20;;;23.90;40.30;;;;;;4108049;28;20045;-56
2022/11/21 13:03:25;;;;;;;2.35;0.40;;;23.90;40.30;;;;;;4112507;28;20085;-58
2022/11/21 13:05:51;;;;;;;0.40;0.40;;;23.80;40.40;;;;;;4115015;28;20100;-53
2022/11/21 13:08:21;;;;;;;0.25;0.20;;;23.80;40.50;;;;;;4097749;28;20031;-54
2022/11/21 13:11:57;;;;;;;1.92;0.30;;;23.80;40.30;;;;;;4111970;28;20391;-45
2022/11/21 13:13:39;;;;;;;3.20;0.50;;;23.80;40.10;;;;;;4112232;28;20034;-47
2022/11/21 13:16:35;;;;;;;2.63;0.20;;;23.70;40.10;;;;;;4112944;28;20446;-48
2022/11/21 13:18:58;;;;;;;1.95;0.30;;;23.70;40.30;;;;;;4116610;28;20041;-48
2022/11/21 13:21:42;;;;;;;1.85;0.50;;;23.70;40.10;;;;;;4113086;28;20414;-52
2022/11/21 13:24:06;;;;;;;1.48;0.35;;;23.70;40.20;;;;;;4108341;28;20125;-43
2022/11/21 13:26:37;;;;;;;3.03;0.50;;;23.60;40.50;;;;;;4113137;28;20597;-48
2022/11/21 13:29:15;;;;;;;1.02;0.40;;;23.60;40.50;;;;;;4107637;28;20084;-49
2022/11/21 13:31:39;;;;;;;1.50;0.32;;;23.60;41.10;;;;;;4114113;28;20057;-51
2022/11/21 13:34:03;;;;;;;1.90;0.40;;;23.60;40.90;;;;;;4115640;28;20101;-48
2022/11/21 13:36:29;;;;;;;4.70;0.60;;;23.60;41.00;;;;;;4109625;28;20057;-53
2022/11/21 13:38:54;;;;;;;3.30;0.45;;;23.50;40.70;;;;;;4110826;28;20035;-48
2022/11/21 13:44:32;;;;;;;1.88;0.25;;;23.50;41.00;;;;;;4113655;28;20405;-46
2022/11/21 13:47:19;;;;;;;1.40;0.30;;;23.50;41.10;;;;;;4109558;28;20113;-48
2022/11/21 13:49:44;;;;;;;2.00;0.30;;;23.50;41.40;;;;;;4116630;28;20042;-44
2022/11/21 13:52:24;;;;;;;3.83;0.52;;;23.40;41.60;;;;;;4110852;28;20864;-45
2022/11/21 13:55:05;;;;;;;6.72;0.60;;;23.40;41.50;;;;;;4116961;28;20034;-45
2022/11/21 13:57:48;;;;;;;2.25;0.60;;;23.40;41.90;;;;;;4117354;28;20097;-49
2022/11/21 14:00:21;;;;;;;1.90;0.60;;;23.30;41.90;;;;;;4113024;28;20049;-49
2022/11/21 14:03:02;;;;;;;2.17;0.40;;;23.30;41.00;;;;;;4116375;28;20109;-52
2022/11/21 14:05:51;;;;;;;2.38;0.50;;;23.30;41.20;;;;;;4117053;28;20046;-49
2022/11/21 14:08:21;;;;;;;1.40;0.38;;;23.20;41.00;;;;;;4112946;28;20069;-50
2022/11/21 14:10:45;;;;;;;1.25;0.30;;;23.20;41.00;;;;;;4112819;28;20076;-48
2022/11/21 14:13:37;;;;;;;0.93;0.43;;;23.20;40.90;;;;;;4117718;28;20064;-45
2022/11/21 14:16:30;;;;;;;1.45;0.40;;;23.20;41.50;;;;;;4109345;28;20130;-53
2022/11/21 14:18:53;;;;;;;0.20;0.20;;;23.10;41.60;;;;;;4117968;28;20073;-45
2022/11/21 14:21:26;;;;;;;1.10;0.32;;;23.10;41.70;;;;;;4103429;28;20108;-49
2022/11/21 14:23:48;;;;;;;0.32;0.20;;;23.00;41.10;;;;;;4117664;28;20061;-46
2022/11/21 14:26:18;;;;;;;1.70;0.20;;;23.00;41.20;;;;;;4118396;28;20524;-48
2022/11/21 14:28:41;;;;;;;1.90;0.50;;;23.00;41.10;;;;;;4115740;28;20042;-50
2022/11/21 14:31:11;;;;;;;3.03;0.32;;;22.90;41.20;;;;;;4119366;28;20043;-46
2022/11/21 14:33:36;;;;;;;0.38;0.30;;;22.90;41.20;;;;;;4114064;28;20034;-46
2022/11/21 14:36:04;;;;;;;0.55;0.30;;;22.90;41.10;;;;;;4115725;28;20058;-44
2022/11/21 14:38:29;;;;;;;0.35;0.30;;;22.90;41.10;;;;;;4112796;28;20040;-45
2022/11/21 14:41:31;;;;;;;0.57;0.28;;;22.90;41.30;;;;;;4104093;28;20098;-44
2022/11/21 14:44:00;;;;;;;5.18;0.43;;;22.90;41.40;;;;;;4109289;28;20725;-46
2022/11/21 14:46:28;;;;;;;2.47;0.30;;;22.90;41.50;;;;;;4117644;28;20096;-52
2022/11/21 14:48:53;;;;;;;0.65;0.28;;;22.80;41.20;;;;;;4111737;28;20065;-45
2022/11/21 14:51:18;;;;;;;0.32;0.20;;;22.80;41.30;;;;;;4111986;28;20030;-50
2022/11/21 14:53:45;;;;;;;2.08;0.30;;;22.70;41.30;;;;;;4110651;28;20047;-57
2022/11/21 14:56:28;;;;;;;1.75;0.50;;;22.70;41.60;;;;;;4113780;28;20054;-51
2022/11/21 14:58:53;;;;;;;0.35;0.30;;;22.70;41.50;;;;;;4116018;28;20080;-48
2022/11/21 15:01:24;;;;;;;0.90;0.43;;;22.70;41.50;;;;;;4114502;28;20080;-47
2022/11/21 15:04:00;;;;;;;0.52;0.28;;;22.70;41.90;;;;;;4113380;28;20121;-49
2022/11/21 15:06:23;;;;;;;1.63;0.63;;;22.60;42.00;;;;;;4114082;28;20149;-48
2022/11/21 15:08:46;;;;;;;0.28;0.22;;;22.60;41.80;;;;;;4115693;28;20126;-51
2022/11/21 15:11:09;;;;;;;0.10;0.10;;;22.60;42.10;;;;;;4114140;28;20158;-48
2022/11/21 15:13:34;;;;;;;1.02;0.30;;;22.50;42.30;;;;;;4112290;28;20077;-51
2022/11/21 15:15:59;;;;;;;1.40;0.30;;;22.50;41.60;;;;;;4116421;28;20026;-50
2022/11/21 15:18:24;;;;;;;0.98;0.50;;;22.50;42.20;;;;;;4121145;28;20038;-46
2022/11/21 15:20:56;;;;;;;1.95;0.30;;;22.50;41.60;;;;;;4118011;28;20038;-49
2022/11/21 15:23:31;;;;;;;1.55;0.30;;;22.40;41.60;;;;;;4122444;28;20370;-46
2022/11/21 15:25:54;;;;;;;0.98;0.52;;;22.40;41.60;;;;;;4116063;28;20077;-47
2022/11/21 15:28:17;;;;;;;2.35;0.40;;;22.40;41.80;;;;;;4117503;28;20057;-46
2022/11/21 15:30:40;;;;;;;2.27;0.60;;;22.40;41.70;;;;;;4114653;28;20096;-50
2022/11/21 15:33:07;;;;;;;1.35;0.35;;;22.40;41.70;;;;;;4113919;28;20286;-48
2022/11/21 15:35:47;;;;;;;0.95;0.40;;;22.40;42.10;;;;;;4116034;28;20506;-49
2022/11/21 15:38:30;;;;;;;1.45;0.30;;;22.30;42.20;;;;;;4113093;28;20470;-54
2022/11/21 15:40:59;;;;;;;0.20;0.20;;;22.30;41.90;;;;;;4118763;28;20513;-47
2022/11/21 15:43:39;;;;;;;2.10;0.50;;;22.30;42.30;;;;;;4115521;28;20038;-54
2022/11/21 15:46:03;;;;;;;0.95;0.40;;;22.30;42.10;;;;;;4113263;28;20331;-45
2022/11/21 15:48:26;;;;;;;0.20;0.20;;;22.20;42.50;;;;;;4116447;28;20453;-48
2022/11/21 15:50:48;;;;;;;0.40;0.20;;;22.20;42.50;;;;;;4116192;28;20050;-48
2022/11/21 15:53:18;;;;;;;0.28;0.25;;;22.20;42.60;;;;;;4102624;28;20340;-46
2022/11/21 15:55:40;;;;;;;0.25;0.20;;;22.20;42.10;;;;;;4091018;28;20200;-48
2022/11/21 15:58:03;;;;;;;0.30;0.20;;;22.10;42.50;;;;;;4105580;28;20931;-47
2022/11/21 16:00:25;;;;;;;0.60;0.20;;;22.10;42.60;;;;;;4103219;28;20070;-45
2022/11/21 16:04:58;;;;;;;0.13;0.13;;;22.10;42.50;;;;;;4109918;23;20093;-45
2022/11/21 16:07:21;;;;;;;0.47;0.20;;;22.10;42.30;;;;;;4093938;28;20099;-49
2022/11/21 16:09:44;;;;;;;0.45;0.30;;;22.00;42.10;;;;;;4093735;28;20031;-52